createdAt,value
2018-11-11T00:00:50.317Z,27.45
2018-11-11T00:03:25.998Z,27.49
2018-11-11T00:06:02.027Z,27.50
2018-11-11T00:08:39.418Z,27.52
2018-11-11T00:11:15.303Z,27.55
2018-11-11T00:13:50.939Z,27.55
2018-11-11T00:16:27.284Z,27.56
2018-11-11T00:19:02.979Z,27.57
2018-11-11T00:21:39.031Z,27.59
2018-11-11T00:24:15.268Z,27.56
2018-11-11T00:26:51.082Z,27.58
2018-11-11T00:29:26.785Z,27.59
2018-11-11T00:32:02.658Z,27.60
2018-11-11T00:34:38.661Z,27.60
2018-11-11T00:37:15.092Z,27.59
2018-11-11T00:39:51.277Z,27.59
2018-11-11T00:42:27.279Z,27.60
2018-11-11T00:45:03.266Z,27.60
2018-11-11T00:47:38.975Z,27.59
2018-11-11T00:50:15.714Z,27.60
2018-11-11T00:52:51.419Z,27.59
2018-11-11T00:55:27.433Z,27.58
2018-11-11T00:58:02.845Z,27.59
2018-11-11T01:00:39.604Z,27.59
2018-11-11T01:03:15.090Z,27.60
2018-11-11T01:05:50.862Z,27.59
2018-11-11T01:08:26.657Z,27.59
2018-11-11T01:11:02.659Z,27.58
2018-11-11T01:13:38.634Z,27.58
2018-11-11T01:16:14.480Z,27.58
2018-11-11T01:18:49.994Z,27.57
2018-11-11T01:21:26.097Z,27.56
2018-11-11T01:24:02.057Z,27.57
2018-11-11T01:26:38.438Z,27.56
2018-11-11T01:29:14.091Z,27.55
2018-11-11T01:31:50.218Z,27.53
2018-11-11T01:34:26.043Z,27.53
2018-11-11T01:37:02.095Z,27.54
2018-11-11T01:39:37.828Z,27.53
2018-11-11T01:43:39.879Z,27.50
2018-11-11T01:46:16.085Z,27.50
2018-11-11T01:48:51.710Z,27.50
2018-11-11T01:51:27.860Z,27.46
2018-11-11T01:54:03.477Z,27.49
2018-11-11T01:56:39.099Z,27.51
2018-11-11T01:59:14.857Z,27.50
2018-11-11T02:01:50.291Z,27.50
2018-11-11T02:04:26.429Z,27.49
2018-11-11T02:07:02.314Z,27.49
2018-11-11T02:09:38.462Z,27.50
2018-11-11T02:12:14.085Z,27.49
2018-11-11T02:14:50.222Z,27.47
2018-11-11T02:17:26.223Z,27.46
2018-11-11T02:20:03.280Z,27.47
2018-11-11T02:22:39.010Z,27.47
2018-11-11T02:25:14.856Z,27.47
2018-11-11T02:27:50.916Z,27.47
2018-11-11T02:30:26.910Z,27.47
2018-11-11T02:33:03.567Z,27.46
2018-11-11T02:35:39.927Z,27.45
2018-11-11T02:38:16.283Z,27.46
2018-11-11T02:40:51.927Z,27.45
2018-11-11T02:43:28.267Z,27.44
2018-11-11T02:46:58.883Z,27.37
2018-11-11T02:49:34.855Z,27.43
2018-11-11T02:52:11.105Z,27.44
2018-11-11T02:54:46.877Z,27.45
2018-11-11T02:57:23.073Z,27.45
2018-11-11T02:59:59.102Z,27.46
2018-11-11T03:02:35.269Z,27.46
2018-11-11T03:05:12.385Z,27.45
2018-11-11T03:07:48.370Z,27.46
2018-11-11T03:10:24.458Z,27.45
2018-11-11T03:13:00.826Z,27.44
2018-11-11T03:15:38.089Z,27.44
2018-11-11T03:18:13.989Z,27.43
2018-11-11T03:20:50.054Z,27.43
2018-11-11T03:23:26.070Z,27.42
2018-11-11T03:26:02.002Z,27.42
2018-11-11T03:28:38.062Z,27.43
2018-11-11T03:31:14.008Z,27.44
2018-11-11T03:33:50.001Z,27.43
2018-11-11T03:36:25.737Z,27.44
2018-11-11T03:39:02.086Z,27.46
2018-11-11T03:41:38.000Z,27.46
2018-11-11T03:44:13.939Z,27.45
2018-11-11T03:46:49.998Z,27.46
2018-11-11T03:49:25.648Z,27.47
2018-11-11T03:52:01.454Z,27.48
2018-11-11T03:54:37.485Z,27.49
2018-11-11T03:57:13.976Z,27.48
2018-11-11T03:59:50.089Z,27.46
2018-11-11T04:02:25.634Z,27.46
2018-11-11T04:05:02.060Z,27.46
2018-11-11T04:07:37.847Z,27.46
2018-11-11T04:10:18.538Z,27.46
2018-11-11T04:14:03.088Z,23.59
2018-11-11T04:16:49.043Z,20.29
2018-11-11T04:19:36.770Z,18.77
2018-11-11T04:26:08.328Z,17.79
2018-11-11T04:28:44.925Z,17.34
2018-11-11T04:31:25.352Z,17.42
2018-11-11T04:34:52.245Z,17.28
2018-11-11T04:37:35.348Z,17.15
2018-11-11T04:54:14.692Z,16.27
2018-11-11T04:56:55.260Z,16.36
2018-11-11T05:15:30.331Z,23.27
2018-11-11T05:18:06.273Z,23.91
2018-11-11T05:20:42.002Z,24.44
2018-11-11T05:26:01.267Z,25.20
2018-11-11T05:28:37.855Z,25.49
2018-11-11T05:31:14.320Z,25.77
2018-11-11T05:33:50.482Z,26.00
2018-11-11T05:36:26.794Z,26.21
2018-11-11T05:39:03.066Z,26.39
2018-11-11T05:41:39.070Z,26.53
2018-11-11T05:44:15.046Z,26.66
2018-11-11T05:46:51.078Z,26.78
2018-11-11T05:49:27.097Z,26.89
2018-11-11T05:52:03.100Z,26.99
2018-11-11T05:54:38.903Z,27.07
2018-11-11T05:57:15.095Z,27.16
2018-11-11T05:59:51.295Z,27.22
2018-11-11T06:02:27.482Z,27.24
2018-11-11T06:05:03.438Z,27.26
2018-11-11T06:07:40.009Z,27.29
2018-11-11T06:10:16.926Z,27.35
2018-11-11T06:12:52.878Z,27.40
2018-11-11T06:15:28.905Z,27.44
2018-11-11T06:18:05.217Z,27.48
2018-11-11T06:20:41.488Z,27.20
2018-11-11T06:25:31.834Z,27.18
2018-11-11T06:28:07.455Z,27.27
2018-11-11T06:30:43.114Z,27.36
2018-11-11T06:33:19.116Z,27.44
2018-11-11T06:35:55.081Z,27.56
2018-11-11T06:38:31.097Z,27.66
2018-11-11T06:41:07.097Z,27.72
2018-11-11T06:43:42.865Z,27.75
2018-11-11T06:46:18.806Z,27.80
2018-11-11T06:48:55.230Z,27.84
2018-11-11T06:51:31.290Z,27.90
2018-11-11T06:54:07.325Z,27.96
2018-11-11T06:56:43.025Z,28.02
2018-11-11T06:59:19.318Z,28.31
2018-11-11T07:04:03.139Z,26.45
2018-11-11T07:06:39.170Z,26.57
2018-11-11T07:09:15.310Z,26.55
2018-11-11T07:11:51.529Z,26.52
2018-11-11T07:14:27.957Z,26.48
2018-11-11T07:17:04.317Z,26.46
2018-11-11T07:19:40.447Z,26.47
2018-11-11T07:22:16.469Z,26.45
2018-11-11T07:24:52.629Z,26.43
2018-11-11T07:27:28.314Z,26.42
2018-11-11T07:30:05.061Z,26.40
2018-11-11T07:32:41.057Z,26.40
2018-11-11T07:35:17.211Z,26.41
2018-11-11T07:37:53.465Z,26.42
2018-11-11T07:40:29.802Z,26.38
2018-11-11T07:43:06.086Z,26.39
2018-11-11T07:45:42.261Z,26.42
2018-11-11T07:48:18.360Z,26.43
2018-11-11T07:50:54.870Z,26.42
2018-11-11T07:53:31.049Z,26.42
2018-11-11T07:56:07.001Z,26.42
2018-11-11T07:58:43.238Z,26.41
2018-11-11T08:01:19.994Z,26.42
2018-11-11T08:03:55.995Z,26.40
2018-11-11T08:06:32.091Z,26.40
2018-11-11T08:09:09.085Z,26.40
2018-11-11T08:12:01.476Z,26.40
2018-11-11T08:14:37.307Z,26.40
2018-11-11T08:17:13.473Z,26.40
2018-11-11T08:19:50.050Z,26.40
2018-11-11T08:22:26.087Z,26.39
2018-11-11T08:25:02.205Z,26.38
2018-11-11T08:27:37.989Z,26.39
2018-11-11T08:30:14.837Z,26.37
2018-11-11T08:32:51.518Z,26.37
2018-11-11T08:35:27.754Z,26.35
2018-11-11T08:38:03.827Z,26.34
2018-11-11T08:40:39.899Z,26.32
2018-11-11T08:43:16.263Z,26.33
2018-11-11T08:45:52.253Z,26.31
2018-11-11T08:48:28.271Z,26.31
2018-11-11T08:51:04.318Z,26.29
2018-11-11T08:53:40.263Z,26.29
2018-11-11T08:56:16.435Z,26.28
2018-11-11T08:58:50.554Z,26.28
2018-11-11T09:02:40.432Z,26.25
2018-11-11T09:05:16.961Z,26.23
2018-11-11T09:07:53.260Z,26.21
2018-11-11T09:10:29.702Z,26.20
2018-11-11T09:13:05.961Z,26.17
2018-11-11T09:15:42.079Z,26.16
2018-11-11T09:18:18.073Z,26.15
2018-11-11T09:20:53.992Z,26.13
2018-11-11T09:23:30.068Z,26.12
2018-11-11T09:26:06.087Z,26.12
2018-11-11T09:28:42.372Z,26.12
2018-11-11T09:31:18.793Z,26.11
2018-11-11T09:33:55.282Z,26.11
2018-11-11T09:36:31.505Z,26.10
2018-11-11T09:39:10.521Z,26.09
2018-11-11T09:41:46.886Z,26.09
2018-11-11T09:44:23.085Z,26.09
2018-11-11T09:46:59.305Z,26.08
2018-11-11T09:49:35.111Z,26.08
2018-11-11T09:52:11.078Z,26.07
2018-11-11T09:54:47.285Z,26.06
2018-11-11T09:57:23.635Z,26.06
2018-11-11T09:59:59.853Z,26.05
2018-11-11T10:02:36.382Z,26.04
2018-11-11T10:05:47.415Z,26.04
2018-11-11T10:08:28.926Z,26.04
2018-11-11T10:11:09.481Z,26.03
2018-11-11T10:14:05.095Z,26.01
2018-11-11T10:16:46.211Z,26.00
2018-11-11T10:19:31.441Z,25.99
2018-11-11T10:22:15.053Z,25.97
2018-11-11T10:25:57.223Z,25.97
2018-11-11T10:28:40.101Z,25.97
2018-11-11T10:31:20.440Z,25.92
2018-11-11T10:34:00.363Z,25.91
2018-11-11T10:36:40.256Z,25.90
2018-11-11T10:39:21.308Z,25.90
2018-11-11T10:43:05.712Z,25.90
2018-11-11T10:45:45.549Z,25.92
2018-11-11T10:48:28.983Z,25.87
2018-11-11T10:51:06.442Z,25.87
2018-11-11T10:53:42.849Z,25.87
2018-11-11T10:56:19.033Z,25.86
2018-11-11T10:58:54.917Z,25.85
2018-11-11T11:02:40.553Z,25.83
2018-11-11T11:05:16.296Z,25.81
2018-11-11T11:07:52.431Z,25.74
2018-11-11T11:10:28.486Z,25.74
2018-11-11T11:13:04.490Z,25.72
2018-11-11T11:15:40.861Z,25.73
2018-11-11T11:18:16.977Z,25.73
2018-11-11T11:20:53.083Z,25.74
2018-11-11T11:23:29.451Z,25.73
2018-11-11T11:26:05.503Z,25.72
2018-11-11T11:28:41.761Z,25.71
2018-11-11T11:31:17.765Z,25.70
2018-11-11T11:33:54.066Z,25.69
2018-11-11T11:36:30.088Z,25.68
2018-11-11T11:39:06.961Z,25.67
2018-11-11T11:41:42.969Z,25.65
2018-11-11T11:44:19.017Z,25.64
2018-11-11T11:46:55.054Z,25.64
2018-11-11T11:49:31.066Z,25.64
2018-11-11T11:52:07.315Z,25.62
2018-11-11T11:54:43.271Z,25.62
2018-11-11T11:57:19.260Z,25.62
2018-11-11T12:02:36.261Z,25.53
2018-11-11T12:05:13.210Z,25.56
2018-11-11T12:07:49.077Z,25.58
2018-11-11T12:10:25.049Z,25.55
2018-11-11T12:13:01.538Z,25.55
2018-11-11T12:15:37.265Z,25.55
2018-11-11T12:18:13.252Z,25.55
2018-11-11T12:20:49.105Z,25.54
2018-11-11T12:23:25.090Z,25.54
2018-11-11T12:26:02.080Z,25.53
2018-11-11T12:28:38.904Z,25.51
2018-11-11T12:31:14.912Z,25.52
2018-11-11T12:33:51.006Z,25.50
2018-11-11T12:36:27.260Z,25.49
2018-11-11T12:39:03.129Z,25.49
2018-11-11T12:41:39.462Z,25.49
2018-11-11T12:44:15.705Z,25.50
2018-11-11T12:46:51.895Z,25.48
2018-11-11T12:49:28.270Z,25.48
2018-11-11T12:52:04.253Z,25.47
2018-11-11T12:54:40.313Z,25.47
2018-11-11T12:57:16.260Z,25.46
2018-11-11T12:59:52.278Z,25.46
2018-11-11T13:02:28.260Z,25.44
2018-11-11T13:05:04.450Z,25.43
2018-11-11T13:07:40.313Z,25.41
2018-11-11T13:10:17.069Z,25.41
2018-11-11T13:12:53.777Z,25.40
2018-11-11T13:15:29.751Z,25.37
2018-11-11T13:18:05.993Z,25.39
2018-11-11T13:20:42.077Z,25.39
2018-11-11T13:23:18.414Z,25.38
2018-11-11T13:25:54.272Z,25.37
2018-11-11T13:28:30.553Z,25.34
2018-11-11T13:31:06.793Z,25.34
2018-11-11T13:33:42.790Z,25.34
2018-11-11T13:36:19.001Z,25.32
2018-11-11T13:38:55.038Z,25.33
2018-11-11T13:41:30.737Z,25.33
2018-11-11T13:44:06.557Z,25.31
2018-11-11T13:46:42.978Z,25.31
2018-11-11T13:49:19.046Z,25.29
2018-11-11T13:51:55.118Z,25.28
2018-11-11T13:54:31.469Z,25.28
2018-11-11T13:57:07.806Z,25.22
2018-11-11T13:59:44.086Z,25.24
2018-11-11T14:02:20.409Z,25.24
2018-11-11T14:04:57.083Z,25.25
2018-11-11T14:07:33.081Z,25.23
2018-11-11T14:10:10.065Z,25.22
2018-11-11T14:12:46.257Z,25.21
2018-11-11T14:15:25.824Z,25.19
2018-11-11T14:18:02.176Z,25.19
2018-11-11T14:20:38.762Z,25.19
2018-11-11T14:23:15.294Z,25.17
2018-11-11T14:25:51.525Z,25.17
2018-11-11T14:28:28.257Z,25.16
2018-11-11T14:31:04.258Z,25.16
2018-11-11T14:33:40.258Z,25.16
2018-11-11T14:36:16.254Z,25.14
2018-11-11T14:38:52.262Z,25.15
2018-11-11T14:43:18.839Z,25.12
2018-11-11T14:45:54.956Z,25.13
2018-11-11T14:48:31.042Z,25.11
2018-11-11T14:51:07.010Z,25.09
2018-11-11T14:53:43.042Z,25.08
2018-11-11T14:56:18.912Z,25.08
2018-11-11T14:58:55.140Z,25.07
2018-11-11T15:01:31.270Z,25.06
2018-11-11T15:04:07.536Z,25.05
2018-11-11T15:06:43.913Z,25.04
2018-11-11T15:09:20.008Z,25.01
2018-11-11T15:11:56.058Z,25.00
2018-11-11T15:14:32.362Z,25.00
2018-11-11T15:17:08.254Z,25.01
2018-11-11T15:19:44.351Z,25.00
2018-11-11T15:22:20.898Z,24.98
2018-11-11T15:24:56.919Z,24.99
2018-11-11T15:27:32.922Z,24.99
2018-11-11T15:30:09.451Z,25.00
2018-11-11T15:32:46.497Z,25.00
2018-11-11T15:35:22.865Z,24.98
2018-11-11T15:37:59.108Z,24.97
2018-11-11T15:40:36.364Z,24.95
2018-11-11T15:43:12.923Z,24.95
2018-11-11T15:45:49.038Z,24.94
2018-11-11T15:48:25.088Z,24.93
2018-11-11T15:51:01.468Z,24.93
2018-11-11T15:53:37.981Z,24.91
2018-11-11T15:56:14.082Z,24.90
2018-11-11T15:58:50.086Z,24.90
2018-11-11T16:01:26.085Z,24.84
2018-11-11T16:04:02.092Z,24.87
2018-11-11T16:06:38.090Z,24.87
2018-11-11T16:09:14.926Z,24.87
2018-11-11T16:11:50.988Z,24.86
2018-11-11T16:14:26.947Z,24.87
2018-11-11T16:17:03.205Z,24.87
2018-11-11T16:19:39.475Z,24.87
2018-11-11T16:22:15.793Z,24.86
2018-11-11T16:24:52.259Z,24.87
2018-11-11T16:27:28.258Z,24.88
2018-11-11T16:30:05.048Z,24.89
2018-11-11T16:32:41.851Z,24.88
2018-11-11T16:35:19.207Z,24.91
2018-11-11T16:37:55.065Z,24.89
2018-11-11T16:40:33.096Z,24.89
2018-11-11T16:43:09.257Z,24.88
2018-11-11T16:45:45.271Z,24.89
2018-11-11T16:48:21.417Z,24.87
2018-11-11T16:50:57.309Z,24.85
2018-11-11T16:53:33.300Z,24.85
2018-11-11T16:56:09.753Z,24.85
2018-11-11T16:58:45.880Z,24.89
2018-11-11T17:01:21.833Z,24.93
2018-11-11T17:03:58.252Z,24.98
2018-11-11T17:06:35.023Z,25.03
2018-11-11T17:09:15.422Z,25.06
2018-11-11T17:11:52.077Z,25.12
2018-11-11T17:14:28.257Z,25.14
2018-11-11T17:17:04.307Z,25.25
2018-11-11T17:19:40.395Z,25.16
2018-11-11T17:22:16.579Z,24.71
2018-11-11T17:24:52.980Z,23.69
2018-11-11T17:27:29.205Z,23.97
2018-11-11T17:30:06.161Z,24.11
2018-11-11T17:33:42.404Z,24.13
2018-11-11T17:36:18.812Z,24.23
2018-11-11T17:38:54.615Z,24.37
2018-11-11T17:41:30.596Z,24.54
2018-11-11T17:44:06.670Z,24.68
2018-11-11T17:46:42.454Z,24.81
2018-11-11T17:49:18.721Z,24.93
2018-11-11T17:51:54.589Z,25.03
2018-11-11T17:54:30.074Z,25.14
2018-11-11T17:57:05.646Z,25.19
2018-11-11T17:59:41.766Z,25.47
2018-11-11T18:02:17.862Z,25.59
2018-11-11T18:04:55.626Z,25.70
2018-11-11T18:07:31.609Z,25.83
2018-11-11T18:10:07.332Z,25.98
2018-11-11T18:12:44.009Z,26.08
2018-11-11T18:15:21.277Z,26.19
2018-11-11T18:17:56.986Z,26.29
2018-11-11T18:20:34.086Z,26.35
2018-11-11T18:23:10.116Z,26.42
2018-11-11T18:25:46.613Z,26.50
2018-11-11T18:28:22.348Z,26.57
2018-11-11T18:30:58.179Z,26.61
2018-11-11T18:33:34.293Z,26.67
2018-11-11T18:36:10.624Z,26.71
2018-11-11T18:38:46.263Z,26.76
2018-11-11T18:41:22.610Z,26.79
2018-11-11T18:43:58.598Z,26.84
2018-11-11T18:46:34.197Z,26.88
2018-11-11T18:49:10.281Z,26.92
2018-11-11T18:51:45.906Z,26.96
2018-11-11T18:54:22.282Z,26.99
2018-11-11T18:56:57.955Z,27.00
2018-11-11T18:59:33.811Z,27.04
2018-11-11T19:02:09.757Z,27.07
2018-11-11T19:04:46.292Z,27.08
2018-11-11T19:07:22.262Z,27.12
2018-11-11T19:12:50.304Z,27.08
2018-11-11T19:15:26.267Z,27.16
2018-11-11T19:18:02.072Z,27.21
2018-11-11T19:20:38.002Z,27.24
2018-11-11T19:23:13.925Z,27.27
2018-11-11T19:25:49.845Z,27.30
2018-11-11T19:28:25.624Z,27.32
2018-11-11T19:31:02.061Z,27.36
2018-11-11T19:33:37.908Z,27.38
2018-11-11T19:43:08.488Z,27.63
2018-11-11T19:45:44.050Z,27.59
2018-11-11T19:48:19.905Z,27.58
2018-11-11T19:50:55.653Z,27.58
2018-11-11T19:54:00.304Z,27.55
2018-11-11T19:56:35.800Z,27.62
2018-11-11T19:59:12.099Z,27.66
2018-11-11T20:01:47.818Z,27.72
2018-11-11T20:04:23.509Z,27.76
2018-11-11T20:06:59.293Z,27.85
2018-11-11T20:09:34.947Z,27.91
2018-11-11T20:12:11.096Z,28.00
2018-11-11T20:14:47.473Z,28.05
2018-11-11T20:17:23.365Z,28.07
2018-11-11T20:19:59.728Z,28.09
2018-11-11T20:22:36.361Z,28.10
2018-11-11T20:25:13.953Z,28.10
2018-11-11T20:28:48.088Z,28.07
2018-11-11T20:31:24.605Z,28.12
2018-11-11T20:34:01.296Z,28.14
2018-11-11T20:36:37.452Z,28.16
2018-11-11T20:40:50.170Z,32.97
2018-11-11T20:43:26.817Z,36.24
2018-11-11T20:46:05.227Z,37.99
2018-11-11T20:48:41.294Z,39.28
2018-11-11T20:51:17.492Z,39.81
2018-11-11T20:53:53.447Z,39.43
2018-11-11T20:56:29.908Z,40.49
2018-11-11T20:59:45.147Z,41.66
2018-11-11T21:02:21.340Z,42.48
2018-11-11T21:04:57.250Z,42.91
2018-11-11T21:07:33.521Z,43.16
2018-11-11T21:10:10.913Z,43.81
2018-11-11T21:53:37.293Z,26.53
2018-11-11T21:56:12.300Z,27.68
2018-11-11T21:58:49.204Z,29.12
2018-11-11T22:01:26.849Z,28.63
2018-11-11T22:04:04.600Z,28.23
2018-11-11T22:06:41.311Z,27.45
2018-11-11T22:09:20.998Z,26.85
2018-11-11T22:12:01.130Z,26.59
2018-11-11T22:14:37.881Z,26.13
2018-11-11T22:17:20.051Z,25.71
2018-11-11T22:22:51.948Z,24.96
2018-11-11T22:25:29.284Z,25.18
2018-11-11T22:28:07.380Z,24.98
2018-11-11T22:30:44.264Z,24.34
2018-11-11T22:33:21.358Z,24.09
2018-11-11T22:35:58.213Z,24.41
2018-11-11T22:38:34.073Z,24.67
2018-11-11T22:41:12.107Z,24.93
2018-11-11T22:43:49.568Z,25.29
2018-11-11T22:46:28.885Z,25.45
2018-11-11T22:49:06.689Z,25.39
2018-11-11T22:51:44.463Z,25.43
2018-11-11T22:54:20.941Z,25.27
2018-11-11T22:56:58.199Z,25.00
2018-11-11T22:59:36.343Z,24.97
2018-11-11T23:02:13.323Z,25.04
2018-11-11T23:04:50.786Z,25.37
2018-11-11T23:07:28.462Z,25.72
2018-11-11T23:10:07.884Z,25.76
2018-11-11T23:12:44.504Z,25.49
2018-11-11T23:15:23.626Z,25.80
2018-11-11T23:17:59.272Z,25.25
2018-11-11T23:20:33.279Z,25.04
2018-11-11T23:23:11.237Z,24.85
2018-11-11T23:25:49.313Z,24.71
2018-11-11T23:28:26.979Z,24.74
2018-11-11T23:31:05.287Z,24.73
2018-11-11T23:33:45.924Z,24.41
2018-11-11T23:36:23.066Z,23.44
2018-11-11T23:38:59.355Z,23.55
2018-11-11T23:41:36.006Z,24.24
2018-11-11T23:44:16.219Z,23.95
2018-11-11T23:46:53.908Z,24.17
2018-11-11T23:49:33.503Z,24.12
2018-11-11T23:52:12.036Z,23.96
2018-11-11T23:54:49.139Z,24.02
2018-11-11T23:57:26.138Z,25.91
